createdAt,value
2022-11-06T00:01:01.138Z,100277.53
2022-11-06T00:03:30.066Z,100276.69
2022-11-06T00:06:15.830Z,100280.13
2022-11-06T00:08:44.886Z,100282.88
2022-11-06T00:11:18.854Z,100282.06
2022-11-06T00:13:47.763Z,100289.63
2022-11-06T00:16:14.751Z,100287.06
2022-11-06T00:18:41.611Z,100291.66
2022-11-06T00:21:12.362Z,100291.59
2022-11-06T00:23:39.020Z,100285.53
2022-11-06T00:26:09.409Z,100280.31
2022-11-06T00:28:36.060Z,100284.56
2022-11-06T00:31:03.801Z,100284.47
2022-11-06T00:33:30.471Z,100285.31
2022-11-06T00:35:57.074Z,100285.44
2022-11-06T00:38:26.252Z,100284.66
2022-11-06T00:40:55.199Z,100279.38
2022-11-06T00:43:26.262Z,100290.88
2022-11-06T00:46:00.470Z,100288.41
2022-11-06T00:48:29.234Z,100287.63
2022-11-06T00:50:55.826Z,100291.88
2022-11-06T00:53:22.392Z,100288.63
2022-11-06T00:55:53.897Z,100288.47
2022-11-06T00:58:20.407Z,100284.75
2022-11-06T01:00:49.243Z,100292.69
2022-11-06T01:03:15.800Z,100287.25
2022-11-06T01:05:42.376Z,100292.69
2022-11-06T01:08:08.934Z,100289.34
2022-11-06T01:10:37.150Z,100293.66
2022-11-06T01:13:04.077Z,100294.63
2022-11-06T01:15:33.008Z,100295.63
2022-11-06T01:18:03.277Z,100294.75
2022-11-06T01:20:29.824Z,100295.59
2022-11-06T01:22:56.314Z,100299.19
2022-11-06T01:25:22.824Z,100306.88
2022-11-06T01:27:49.358Z,100303.25
2022-11-06T01:30:15.860Z,100300.00
2022-11-06T01:32:44.899Z,100299.19
2022-11-06T01:35:13.804Z,100295.31
2022-11-06T01:37:45.398Z,100298.88
2022-11-06T01:40:12.001Z,100294.38
2022-11-06T01:42:38.490Z,100290.88
2022-11-06T01:45:11.416Z,100292.63
2022-11-06T01:47:37.904Z,100294.97
2022-11-06T01:50:07.716Z,100289.56
2022-11-06T01:52:36.693Z,100296.31
2022-11-06T01:55:14.790Z,100292.81
2022-11-06T01:57:41.564Z,100293.69
2022-11-06T02:00:08.708Z,100296.28
2022-11-06T02:02:37.787Z,100307.63
2022-11-06T02:05:07.006Z,100302.97
2022-11-06T02:07:33.722Z,100304.63
2022-11-06T02:10:00.633Z,100304.69
2022-11-06T02:12:36.571Z,100306.16
2022-11-06T02:15:12.170Z,100306.94
2022-11-06T02:17:57.416Z,100313.69
2022-11-06T02:20:28.866Z,100311.00
2022-11-06T02:23:00.653Z,100306.84
2022-11-06T02:25:46.002Z,100313.28
2022-11-06T02:28:16.082Z,100307.31
2022-11-06T02:30:44.301Z,100312.56
2022-11-06T02:33:12.653Z,100315.97
2022-11-06T02:35:41.208Z,100312.25
2022-11-06T02:38:10.973Z,100317.13
2022-11-06T02:40:42.435Z,100322.44
2022-11-06T02:43:11.763Z,100324.25
2022-11-06T02:45:40.058Z,100326.94
2022-11-06T02:48:09.258Z,100331.59
2022-11-06T02:50:39.484Z,100335.81
2022-11-06T02:53:06.832Z,100335.78
2022-11-06T02:56:03.511Z,100340.88
2022-11-06T02:58:53.462Z,100339.09
2022-11-06T03:01:27.614Z,100342.66
2022-11-06T03:03:57.206Z,100346.28
2022-11-06T03:06:26.161Z,100342.97
2022-11-06T03:08:58.969Z,100344.44
2022-11-06T03:11:26.496Z,100346.09
2022-11-06T03:13:59.528Z,100346.63
2022-11-06T03:16:36.424Z,100352.63
2022-11-06T03:19:02.912Z,100350.91
2022-11-06T03:21:37.430Z,100348.50
2022-11-06T03:24:10.661Z,100362.88
2022-11-06T03:26:37.634Z,100351.81
2022-11-06T03:29:09.140Z,100360.34
2022-11-06T03:31:41.079Z,100369.16
2022-11-06T03:34:08.791Z,100363.16
2022-11-06T03:36:42.022Z,100367.78
2022-11-06T03:39:10.657Z,100379.16
2022-11-06T03:41:48.258Z,100380.97
2022-11-06T03:44:18.968Z,100375.97
2022-11-06T03:46:47.354Z,100379.38
2022-11-06T03:49:15.480Z,100378.38
2022-11-06T03:51:46.591Z,100375.78
2022-11-06T03:54:26.361Z,100375.06
2022-11-06T03:56:57.490Z,100385.91
2022-11-06T03:59:25.377Z,100377.00
2022-11-06T04:01:52.079Z,100384.53
2022-11-06T04:04:22.944Z,100389.56
2022-11-06T04:06:53.994Z,100385.63
2022-11-06T04:09:39.338Z,100381.66
2022-11-06T04:12:27.464Z,100378.41
2022-11-06T04:14:59.296Z,100385.31
2022-11-06T04:17:28.741Z,100385.53
2022-11-06T04:19:56.410Z,100381.75
2022-11-06T04:22:34.979Z,100388.38
2022-11-06T04:25:34.249Z,100395.78
2022-11-06T04:28:20.055Z,100387.84
2022-11-06T04:30:51.188Z,100387.56
2022-11-06T04:33:25.189Z,100384.16
2022-11-06T04:36:03.311Z,100384.00
2022-11-06T04:38:35.694Z,100385.16
2022-11-06T04:41:05.284Z,100390.34
2022-11-06T04:43:44.002Z,100387.66
2022-11-06T04:46:11.481Z,100382.38
2022-11-06T04:48:41.171Z,100385.72
2022-11-06T04:51:10.763Z,100383.25
2022-11-06T04:53:37.430Z,100391.19
2022-11-06T04:56:10.881Z,100390.22
2022-11-06T04:58:38.459Z,100386.38
2022-11-06T05:01:07.603Z,100385.63
2022-11-06T05:03:34.116Z,100395.25
2022-11-06T05:06:00.633Z,100389.97
2022-11-06T05:08:29.538Z,100384.75
2022-11-06T05:10:56.097Z,100385.72
2022-11-06T05:13:23.046Z,100388.44
2022-11-06T05:15:58.222Z,100393.06
2022-11-06T05:18:25.263Z,100397.63
2022-11-06T05:21:14.340Z,100396.94
2022-11-06T05:23:43.079Z,100393.69
2022-11-06T05:26:09.628Z,100399.47
2022-11-06T05:28:36.159Z,100401.19
2022-11-06T05:31:05.320Z,100409.22
2022-11-06T05:33:32.707Z,100412.81
2022-11-06T05:36:03.210Z,100415.25
2022-11-06T05:38:32.474Z,100419.59
2022-11-06T05:40:58.986Z,100422.88
2022-11-06T05:43:25.816Z,100420.84
2022-11-06T05:45:56.973Z,100425.31
2022-11-06T05:48:25.582Z,100424.66
2022-11-06T05:50:54.503Z,100433.53
2022-11-06T05:53:23.497Z,100433.66
2022-11-06T05:55:52.533Z,100433.78
2022-11-06T05:58:20.082Z,100440.84
2022-11-06T06:00:49.933Z,100437.19
2022-11-06T06:03:16.556Z,100448.56
2022-11-06T06:05:43.130Z,100447.75
2022-11-06T06:08:09.595Z,100448.50
2022-11-06T06:10:42.481Z,100449.22
2022-11-06T06:13:11.265Z,100450.19
2022-11-06T06:15:38.486Z,100449.91
2022-11-06T06:18:07.704Z,100460.38
2022-11-06T06:20:34.294Z,100459.44
2022-11-06T06:23:00.891Z,100463.88
2022-11-06T06:25:28.384Z,100467.47
2022-11-06T06:27:57.396Z,100471.13
2022-11-06T06:30:24.149Z,100473.91
2022-11-06T06:32:51.148Z,100481.00
2022-11-06T06:35:20.657Z,100481.25
2022-11-06T06:37:50.968Z,100487.22
2022-11-06T06:40:21.033Z,100485.66
2022-11-06T06:42:47.507Z,100486.25
2022-11-06T06:45:14.130Z,100487.19
2022-11-06T06:47:40.693Z,100491.53
2022-11-06T06:50:09.901Z,100495.78
2022-11-06T06:52:36.432Z,100503.69
2022-11-06T06:55:02.984Z,100512.19
2022-11-06T06:57:29.462Z,100512.81
2022-11-06T06:59:56.395Z,100512.66
2022-11-06T07:02:22.969Z,100510.75
2022-11-06T07:04:49.846Z,100512.59
2022-11-06T07:07:16.483Z,100518.00
2022-11-06T07:09:43.085Z,100515.59
2022-11-06T07:12:09.616Z,100519.81
2022-11-06T07:14:36.313Z,100511.94
2022-11-06T07:17:02.838Z,100513.38
2022-11-06T07:19:29.320Z,100518.84
2022-11-06T07:21:57.944Z,100521.78
2022-11-06T07:24:27.641Z,100513.28
2022-11-06T07:26:54.151Z,100518.78
2022-11-06T07:29:20.621Z,100524.00
2022-11-06T07:31:47.190Z,100516.97
2022-11-06T07:34:13.820Z,100525.75
2022-11-06T07:36:40.346Z,100517.91
2022-11-06T07:39:06.861Z,100525.75
2022-11-06T07:41:33.449Z,100533.34
2022-11-06T07:44:00.357Z,100527.41
2022-11-06T07:46:29.404Z,100527.69
2022-11-06T07:48:56.021Z,100534.72
2022-11-06T07:51:22.526Z,100540.97
2022-11-06T07:53:49.164Z,100532.38
2022-11-06T07:56:15.682Z,100536.47
2022-11-06T07:58:42.182Z,100529.50
2022-11-06T08:01:17.940Z,100529.50
2022-11-06T08:03:45.289Z,100533.06
2022-11-06T08:06:14.211Z,100526.91
2022-11-06T08:08:40.752Z,100536.38
2022-11-06T08:11:10.270Z,100542.19
2022-11-06T08:13:37.009Z,100538.06
2022-11-06T08:16:16.123Z,100540.59
2022-11-06T08:18:45.588Z,100542.28
2022-11-06T08:21:12.143Z,100537.22
2022-11-06T08:23:41.218Z,100549.50
2022-11-06T08:26:12.734Z,100544.59
2022-11-06T08:28:39.249Z,100549.22
2022-11-06T08:31:09.233Z,100550.13
2022-11-06T08:33:36.186Z,100546.09
2022-11-06T08:36:03.683Z,100547.22
2022-11-06T08:38:32.768Z,100544.66
2022-11-06T08:41:03.612Z,100544.84
2022-11-06T08:43:30.103Z,100547.66
2022-11-06T08:45:56.667Z,100540.63
2022-11-06T08:48:23.213Z,100535.81
2022-11-06T08:50:54.686Z,100540.41
2022-11-06T08:53:21.288Z,100543.28
2022-11-06T08:55:50.339Z,100549.41
2022-11-06T08:58:17.147Z,100547.75
2022-11-06T09:00:43.773Z,100552.38
2022-11-06T09:03:15.031Z,100549.09
2022-11-06T09:05:42.863Z,100546.66
2022-11-06T09:08:12.587Z,100547.78
2022-11-06T09:10:39.753Z,100545.28
2022-11-06T09:13:06.328Z,100532.56
2022-11-06T09:15:33.064Z,100536.22
2022-11-06T09:18:01.888Z,100539.03
2022-11-06T09:20:30.843Z,100535.84
2022-11-06T09:23:06.867Z,100538.69
2022-11-06T09:25:33.474Z,100538.94
2022-11-06T09:28:02.480Z,100536.50
2022-11-06T09:30:30.159Z,100537.53
2022-11-06T09:32:57.741Z,100532.47
2022-11-06T09:35:25.075Z,100530.88
2022-11-06T09:37:51.725Z,100540.63
2022-11-06T09:40:18.227Z,100543.38
2022-11-06T09:42:50.946Z,100533.59
2022-11-06T09:45:22.881Z,100537.63
2022-11-06T09:47:55.947Z,100529.81
2022-11-06T09:50:25.243Z,100530.88
2022-11-06T09:52:52.927Z,100532.09
2022-11-06T09:55:24.772Z,100525.31
2022-11-06T09:57:57.723Z,100529.78
2022-11-06T10:00:24.407Z,100531.03
2022-11-06T10:03:05.808Z,100523.56
2022-11-06T10:05:33.722Z,100521.28
2022-11-06T10:08:00.844Z,100523.91
2022-11-06T10:10:39.084Z,100521.44
2022-11-06T10:13:07.936Z,100519.06
2022-11-06T10:15:36.930Z,100512.38
2022-11-06T10:18:13.380Z,100516.13
2022-11-06T10:20:47.954Z,100510.31
2022-11-06T10:23:50.066Z,100509.53
2022-11-06T10:26:20.062Z,100512.91
2022-11-06T10:28:59.815Z,100516.84
2022-11-06T10:31:26.343Z,100511.44
2022-11-06T10:34:08.162Z,100506.47
2022-11-06T10:36:48.716Z,100511.84
2022-11-06T10:39:23.189Z,100514.94
2022-11-06T10:41:58.023Z,100515.06
2022-11-06T10:44:36.281Z,100512.38
2022-11-06T10:47:21.698Z,100504.69
2022-11-06T10:49:50.531Z,100498.66
2022-11-06T10:52:28.712Z,100495.09
2022-11-06T10:55:07.703Z,100492.44
2022-11-06T10:57:37.459Z,100489.94
2022-11-06T11:00:08.760Z,100488.22
2022-11-06T11:02:36.050Z,100486.50
2022-11-06T11:05:07.519Z,100482.09
2022-11-06T11:07:33.999Z,100484.72
2022-11-06T11:10:02.515Z,100481.16
2022-11-06T11:12:32.967Z,100482.91
2022-11-06T11:15:16.263Z,100480.31
2022-11-06T11:18:02.959Z,100483.59
2022-11-06T11:20:30.988Z,100480.03
2022-11-06T11:23:16.428Z,100477.56
2022-11-06T11:25:44.596Z,100474.16
2022-11-06T11:28:20.997Z,100475.56
2022-11-06T11:30:54.169Z,100474.69
2022-11-06T11:33:26.493Z,100483.41
2022-11-06T11:35:53.402Z,100482.59
2022-11-06T11:38:23.005Z,100478.28
2022-11-06T11:40:52.021Z,100475.44
2022-11-06T11:43:22.141Z,100477.38
2022-11-06T11:46:05.404Z,100470.53
2022-11-06T11:49:07.565Z,100464.56
2022-11-06T11:51:34.093Z,100465.63
2022-11-06T11:54:06.066Z,100458.56
2022-11-06T11:57:02.366Z,100460.41
2022-11-06T11:59:23.085Z,100462.16
2022-11-06T12:01:49.912Z,100461.22
2022-11-06T12:04:18.117Z,100461.28
2022-11-06T12:06:51.809Z,100468.41
2022-11-06T12:09:21.050Z,100463.31
2022-11-06T12:11:47.779Z,100454.84
2022-11-06T12:14:33.243Z,100454.19
2022-11-06T12:17:09.184Z,100460.63
2022-11-06T12:19:36.065Z,100456.47
2022-11-06T12:22:10.966Z,100459.31
2022-11-06T12:24:47.355Z,100455.03
2022-11-06T12:27:19.787Z,100462.22
2022-11-06T12:29:47.897Z,100458.88
2022-11-06T12:32:26.437Z,100465.81
2022-11-06T12:34:52.975Z,100457.03
2022-11-06T12:37:22.629Z,100456.25
2022-11-06T12:40:25.030Z,100451.94
2022-11-06T12:43:03.214Z,100455.59
2022-11-06T12:45:38.638Z,100454.03
2022-11-06T12:48:34.527Z,100456.84
2022-11-06T12:51:04.590Z,100461.22
2022-11-06T12:53:37.277Z,100465.63
2022-11-06T12:56:24.246Z,100459.44
2022-11-06T12:59:06.160Z,100466.44
2022-11-06T13:01:32.855Z,100465.47
2022-11-06T13:04:21.602Z,100468.09
2022-11-06T13:07:07.194Z,100464.59
2022-11-06T13:09:44.040Z,100468.97
2022-11-06T13:12:13.630Z,100466.38
2022-11-06T13:14:47.336Z,100460.19
2022-11-06T13:17:13.810Z,100467.16
2022-11-06T13:19:43.105Z,100470.16
2022-11-06T13:22:19.042Z,100466.34
2022-11-06T13:24:51.711Z,100467.09
2022-11-06T13:27:44.791Z,100461.69
2022-11-06T13:30:20.380Z,100460.94
2022-11-06T13:33:08.357Z,100459.38
2022-11-06T13:35:38.778Z,100468.28
2022-11-06T13:38:08.548Z,100470.16
2022-11-06T13:40:45.335Z,100463.22
2022-11-06T13:43:30.816Z,100462.44
2022-11-06T13:45:59.674Z,100452.94
2022-11-06T13:48:37.799Z,100457.25
2022-11-06T13:51:24.664Z,100461.66
2022-11-06T13:53:52.891Z,100457.25
2022-11-06T13:56:36.194Z,100459.88
2022-11-06T13:59:10.366Z,100446.78
2022-11-06T14:01:43.148Z,100439.88
2022-11-06T14:04:12.758Z,100447.84
2022-11-06T14:06:39.310Z,100440.22
2022-11-06T14:09:09.885Z,100444.72
2022-11-06T14:11:42.376Z,100443.91
2022-11-06T14:14:25.911Z,100442.16
2022-11-06T14:17:11.183Z,100441.13
2022-11-06T14:19:37.994Z,100442.66
2022-11-06T14:22:19.350Z,100436.44
2022-11-06T14:24:45.940Z,100437.22
2022-11-06T14:27:32.426Z,100438.84
2022-11-06T14:30:03.212Z,100443.81
2022-11-06T14:32:32.712Z,100441.13
2022-11-06T14:35:18.164Z,100446.31
2022-11-06T14:37:45.771Z,100439.31
2022-11-06T14:40:12.974Z,100442.81
2022-11-06T14:42:42.682Z,100440.09
2022-11-06T14:45:10.564Z,100440.88
2022-11-06T14:47:39.546Z,100444.28
2022-11-06T14:50:07.482Z,100445.88
2022-11-06T14:52:45.341Z,100442.22
2022-11-06T14:55:22.083Z,100452.50
2022-11-06T14:57:50.006Z,100451.50
2022-11-06T15:00:35.469Z,100442.66
2022-11-06T15:03:04.707Z,100452.16
2022-11-06T15:05:41.998Z,100449.50
2022-11-06T15:08:09.445Z,100450.31
2022-11-06T15:10:42.051Z,100449.31
2022-11-06T15:13:16.351Z,100462.25
2022-11-06T15:15:43.759Z,100460.34
2022-11-06T15:18:10.592Z,100462.59
2022-11-06T15:20:39.737Z,100468.06
2022-11-06T15:23:14.635Z,100468.34
2022-11-06T15:25:50.379Z,100468.00
2022-11-06T15:28:21.166Z,100479.72
2022-11-06T15:30:48.891Z,100477.03
2022-11-06T15:33:19.222Z,100478.75
2022-11-06T15:35:46.543Z,100471.63
2022-11-06T15:38:17.343Z,100474.19
2022-11-06T15:40:43.869Z,100476.78
2022-11-06T15:43:19.563Z,100471.41
2022-11-06T15:45:48.887Z,100475.78
2022-11-06T15:48:24.125Z,100481.03
2022-11-06T15:50:50.662Z,100475.06
2022-11-06T15:53:18.840Z,100476.88
2022-11-06T15:55:55.042Z,100471.66
2022-11-06T15:58:29.548Z,100475.94
2022-11-06T16:00:59.826Z,100479.41
2022-11-06T16:03:31.312Z,100475.81
2022-11-06T16:06:01.948Z,100482.81
2022-11-06T16:08:29.071Z,100479.41
2022-11-06T16:10:58.193Z,100481.16
2022-11-06T16:13:25.351Z,100482.09
2022-11-06T16:15:51.919Z,100479.56
2022-11-06T16:18:38.553Z,100482.19
2022-11-06T16:21:09.563Z,100485.66
2022-11-06T16:23:43.761Z,100486.53
2022-11-06T16:26:14.162Z,100485.69
2022-11-06T16:28:44.370Z,100483.09
2022-11-06T16:31:13.718Z,100485.56
2022-11-06T16:33:53.183Z,100484.66
2022-11-06T16:36:19.710Z,100493.38
2022-11-06T16:38:46.902Z,100493.38
2022-11-06T16:41:35.802Z,100493.38
2022-11-06T16:44:26.070Z,100482.41
2022-11-06T16:47:05.212Z,100481.38
2022-11-06T16:49:35.738Z,100483.25
2022-11-06T16:52:04.587Z,100486.03
2022-11-06T16:54:32.457Z,100483.59
2022-11-06T16:57:11.059Z,100488.88
2022-11-06T16:59:37.966Z,100484.44
2022-11-06T17:02:05.340Z,100486.97
2022-11-06T17:04:32.047Z,100485.16
2022-11-06T17:06:58.635Z,100486.59
2022-11-06T17:09:28.393Z,100493.34
2022-11-06T17:11:58.499Z,100494.78
2022-11-06T17:14:25.227Z,100492.66
2022-11-06T17:16:53.409Z,100499.28
2022-11-06T17:19:20.319Z,100491.31
2022-11-06T17:21:47.169Z,100498.97
2022-11-06T17:27:00.471Z,100494.13
2022-11-06T17:29:27.336Z,100500.13
2022-11-06T17:31:54.289Z,100487.81
2022-11-06T17:34:20.920Z,100489.41
2022-11-06T17:36:47.443Z,100498.03
2022-11-06T17:39:14.104Z,100495.41
2022-11-06T17:41:45.573Z,100506.50
2022-11-06T17:44:12.818Z,100507.28
2022-11-06T17:46:41.247Z,100508.88
2022-11-06T17:49:10.492Z,100514.00
2022-11-06T17:51:58.424Z,100510.44
2022-11-06T17:54:30.407Z,100504.38
2022-11-06T17:56:57.300Z,100506.06
2022-11-06T17:59:24.224Z,100506.00
2022-11-06T18:01:53.964Z,100509.38
2022-11-06T18:04:21.236Z,100500.69
2022-11-06T18:06:51.008Z,100501.16
2022-11-06T18:09:20.342Z,100504.34
2022-11-06T18:11:49.561Z,100517.41
2022-11-06T18:14:18.738Z,100518.19
2022-11-06T18:16:48.357Z,100513.84
2022-11-06T18:19:16.649Z,100515.72
2022-11-06T18:21:43.165Z,100518.22
2022-11-06T18:24:09.882Z,100525.13
2022-11-06T18:26:40.149Z,100523.56
2022-11-06T18:29:07.164Z,100522.50
2022-11-06T18:31:34.022Z,100519.72
2022-11-06T18:34:00.713Z,100517.09
2022-11-06T18:36:27.219Z,100527.59
2022-11-06T18:38:53.771Z,100525.91
2022-11-06T18:41:21.134Z,100532.06
2022-11-06T18:43:47.802Z,100526.88
2022-11-06T18:46:17.843Z,100527.03
2022-11-06T18:48:44.598Z,100529.69
2022-11-06T18:51:33.354Z,100521.94
2022-11-06T18:54:04.674Z,100527.97
2022-11-06T18:56:31.596Z,100530.53
2022-11-06T18:58:58.111Z,100528.78
2022-11-06T19:01:25.827Z,100528.78
2022-11-06T19:03:52.543Z,100534.84
2022-11-06T19:06:21.982Z,100528.81
2022-11-06T19:08:50.609Z,100534.09
2022-11-06T19:11:17.766Z,100536.81
2022-11-06T19:13:48.007Z,100540.09
2022-11-06T19:16:15.612Z,100536.81
2022-11-06T19:18:44.747Z,100526.53
2022-11-06T19:21:13.760Z,100526.72
2022-11-06T19:23:41.192Z,100528.66
2022-11-06T19:26:30.071Z,100534.03
2022-11-06T19:28:57.407Z,100538.50
2022-11-06T19:31:28.955Z,100530.84
2022-11-06T19:33:56.424Z,100532.59
2022-11-06T19:36:25.724Z,100532.56
2022-11-06T19:38:52.886Z,100532.41
2022-11-06T19:41:19.998Z,100528.81
2022-11-06T19:43:49.012Z,100528.63
2022-11-06T19:46:23.881Z,100526.78
2022-11-06T19:48:58.592Z,100521.38
2022-11-06T19:51:26.004Z,100518.63
2022-11-06T19:53:53.336Z,100522.75
2022-11-06T19:56:20.082Z,100524.44
2022-11-06T19:58:48.525Z,100537.16
2022-11-06T20:01:18.268Z,100526.53
2022-11-06T20:03:47.667Z,100529.78
2022-11-06T20:06:17.027Z,100523.56
2022-11-06T20:08:43.894Z,100524.25
2022-11-06T20:11:16.489Z,100530.25
2022-11-06T20:13:45.841Z,100531.84
2022-11-06T20:16:16.390Z,100537.06
2022-11-06T20:18:43.914Z,100546.56
2022-11-06T20:21:11.044Z,100543.09
2022-11-06T20:23:37.855Z,100542.06
2022-11-06T20:26:04.962Z,100538.44
2022-11-06T20:28:34.273Z,100535.78
2022-11-06T20:31:04.602Z,100547.00
2022-11-06T20:33:33.603Z,100553.41
2022-11-06T20:36:08.090Z,100549.22
2022-11-06T20:38:34.695Z,100550.56
2022-11-06T20:41:01.264Z,100553.31
2022-11-06T20:43:27.785Z,100533.50
2022-11-06T20:45:54.442Z,100540.72
2022-11-06T20:48:20.932Z,100558.09
2022-11-06T20:51:00.226Z,100567.06
2022-11-06T20:53:29.362Z,100565.13
2022-11-06T20:56:01.293Z,100575.78
2022-11-06T20:58:28.372Z,100579.97
2022-11-06T21:01:07.449Z,100577.41
2022-11-06T21:03:34.273Z,100570.56
2022-11-06T21:06:03.353Z,100567.13
2022-11-06T21:08:31.427Z,100568.88
2022-11-06T21:11:05.934Z,100562.81
2022-11-06T21:13:35.739Z,100557.75
2022-11-06T21:16:06.121Z,100558.56
2022-11-06T21:18:34.683Z,100569.84
2022-11-06T21:21:02.464Z,100563.78
2022-11-06T21:23:29.063Z,100557.75
2022-11-06T21:25:55.591Z,100558.69
2022-11-06T21:28:24.276Z,100564.78
2022-11-06T21:30:50.848Z,100566.63
2022-11-06T21:33:19.468Z,100573.28
2022-11-06T21:35:46.088Z,100563.94
2022-11-06T21:38:12.709Z,100564.69
2022-11-06T21:40:41.519Z,100570.13
2022-11-06T21:43:08.085Z,100569.34
2022-11-06T21:45:35.062Z,100564.38
2022-11-06T21:48:01.696Z,100568.84
2022-11-06T21:50:30.260Z,100573.31
2022-11-06T21:53:15.402Z,100559.59
2022-11-06T21:56:00.823Z,100565.75
2022-11-06T21:58:29.463Z,100562.41
2022-11-06T22:00:56.093Z,100563.28
2022-11-06T22:03:22.723Z,100570.22
2022-11-06T22:05:49.330Z,100569.09
2022-11-06T22:08:16.164Z,100586.25
2022-11-06T22:10:45.478Z,100586.25
2022-11-06T22:13:12.405Z,100585.41
2022-11-06T22:15:41.781Z,100588.13
2022-11-06T22:18:11.677Z,100582.84
2022-11-06T22:20:38.427Z,100588.78
2022-11-06T22:23:05.072Z,100579.13
2022-11-06T22:25:31.582Z,100585.03
2022-11-06T22:27:58.167Z,100594.44
2022-11-06T22:30:26.838Z,100585.56
2022-11-06T22:32:53.354Z,100581.94
2022-11-06T22:35:19.946Z,100582.75
2022-11-06T22:37:46.530Z,100583.56
2022-11-06T22:40:13.051Z,100580.94
2022-11-06T22:42:42.152Z,100582.63
2022-11-06T22:45:11.290Z,100577.53
2022-11-06T22:47:40.201Z,100581.88
2022-11-06T22:50:06.911Z,100577.63
2022-11-06T22:52:33.470Z,100586.47
2022-11-06T22:54:59.978Z,100582.31
2022-11-06T22:57:26.554Z,100581.72
2022-11-06T22:59:53.459Z,100581.69
2022-11-06T23:02:20.137Z,100587.03
2022-11-06T23:04:49.185Z,100580.38
2022-11-06T23:07:15.719Z,100582.38
2022-11-06T23:09:44.275Z,100570.31
2022-11-06T23:12:10.768Z,100570.44
2022-11-06T23:14:39.768Z,100576.69
2022-11-06T23:17:06.432Z,100571.47
2022-11-06T23:19:33.135Z,100572.28
2022-11-06T23:22:29.040Z,100569.66
2022-11-06T23:24:56.114Z,100570.56
2022-11-06T23:27:23.819Z,100577.47
2022-11-06T23:30:00.349Z,100575.72
2022-11-06T23:32:32.661Z,100578.44
2022-11-06T23:34:59.333Z,100584.47
2022-11-06T23:37:25.998Z,100586.97
2022-11-06T23:39:55.010Z,100593.88
2022-11-06T23:42:21.829Z,100593.94
2022-11-06T23:45:07.158Z,100588.09
2022-11-06T23:47:34.230Z,100588.31
2022-11-06T23:50:00.846Z,100590.13
2022-11-06T23:52:27.825Z,100583.13
2022-11-06T23:54:54.563Z,100579.63
2022-11-06T23:57:23.557Z,100581.25
2022-11-06T23:59:50.578Z,100588.16
